Ardmore, Oklahoma
Current Conditions -  °F | °C
As of 5:55 PM on Saturday 22 Nov 2014 (Local Time) from K1F0 Reporting Station
Light Rain Light Rain  
Wind Chill: 13°   Ceiling: 400
Heat Index: 13°   Visibility: 7mi
Dew Point: 12°   Wind: 5mph
Humidity: 94%   Direction: 100°E
Pressure: 29.87"   Gusts: NA
Location:  34.17°N, 97.13°W
Report Text: K1F0 222355Z AUTO 10004KT 7SM -RA OVC004 13/12 A2987 RMK AO2 P0003
Loading
Personal Weather Stations






























Interactive Weather Map New forecast layout! Learn more

10-Day Weather Forecast

Advertisements
Track Severe Weather on mobile